createdAt,value
2023-01-17T00:02:07.129Z,92.71
2023-01-17T00:04:52.629Z,91.27
2023-01-17T00:07:39.885Z,90.70
2023-01-17T00:10:15.261Z,90.19
2023-01-17T00:12:51.032Z,90.71
2023-01-17T00:15:19.819Z,90.62
2023-01-17T00:17:47.653Z,90.65
2023-01-17T00:20:34.511Z,90.24
2023-01-17T00:23:19.708Z,89.56
2023-01-17T00:26:04.809Z,89.16
2023-01-17T00:28:37.099Z,87.87
2023-01-17T00:31:05.411Z,88.40
2023-01-17T00:33:32.552Z,88.64
2023-01-17T00:35:59.917Z,89.51
2023-01-17T00:38:28.987Z,89.44
2023-01-17T00:41:02.143Z,88.79
2023-01-17T00:43:48.174Z,88.31
2023-01-17T00:46:34.032Z,89.08
2023-01-17T00:49:19.422Z,88.54
2023-01-17T00:52:04.623Z,87.77
2023-01-17T00:54:49.854Z,88.33
2023-01-17T00:57:34.693Z,88.77
2023-01-17T01:00:19.965Z,89.58
2023-01-17T01:03:05.255Z,89.25
2023-01-17T01:05:50.507Z,89.32
2023-01-17T01:08:35.723Z,88.96
2023-01-17T01:11:24.446Z,89.57
2023-01-17T01:14:09.739Z,90.08
2023-01-17T01:16:55.123Z,90.99
2023-01-17T01:19:40.449Z,90.87
2023-01-17T01:22:25.815Z,90.79
2023-01-17T01:25:11.185Z,89.78
2023-01-17T01:27:56.754Z,88.29
2023-01-17T01:30:41.985Z,88.47
2023-01-17T01:33:19.705Z,89.07
2023-01-17T01:35:54.445Z,89.38
2023-01-17T01:38:25.470Z,89.53
2023-01-17T01:40:55.034Z,88.67
2023-01-17T01:43:41.240Z,89.38
2023-01-17T01:46:11.259Z,88.74
2023-01-17T01:48:37.923Z,88.73
2023-01-17T01:51:09.806Z,88.62
2023-01-17T01:53:40.830Z,88.61
2023-01-17T01:56:11.903Z,88.54
2023-01-17T01:58:40.419Z,88.21
2023-01-17T02:01:11.045Z,87.40
2023-01-17T02:03:41.083Z,88.36
2023-01-17T02:06:24.630Z,88.59
2023-01-17T02:08:51.998Z,88.02
2023-01-17T02:11:18.857Z,87.75
2023-01-17T02:13:46.801Z,88.05
2023-01-17T02:16:25.378Z,88.35
2023-01-17T02:19:16.096Z,87.36
2023-01-17T02:22:21.024Z,87.57
2023-01-17T02:25:30.513Z,87.71
2023-01-17T02:28:00.051Z,88.48
2023-01-17T02:30:39.316Z,89.35
2023-01-17T02:33:24.513Z,89.95
2023-01-17T02:36:05.549Z,89.47
2023-01-17T02:38:38.403Z,89.00
2023-01-17T02:41:10.036Z,88.61
2023-01-17T02:43:37.730Z,89.77
2023-01-17T02:46:04.543Z,89.67
2023-01-17T02:48:33.605Z,89.19
2023-01-17T02:51:07.840Z,89.58
2023-01-17T02:54:05.066Z,89.89
2023-01-17T02:56:49.969Z,89.66
2023-01-17T02:59:34.934Z,89.20
2023-01-17T03:02:07.480Z,88.61
2023-01-17T03:04:52.882Z,88.61
2023-01-17T03:07:26.207Z,89.08
2023-01-17T03:10:01.561Z,88.78
2023-01-17T03:12:30.276Z,88.19
2023-01-17T03:14:56.987Z,88.32
2023-01-17T03:17:31.918Z,88.46
2023-01-17T03:19:58.806Z,87.78
2023-01-17T03:22:25.524Z,86.67
2023-01-17T03:24:52.239Z,87.53
2023-01-17T03:27:18.818Z,87.96
2023-01-17T03:29:45.541Z,87.41
2023-01-17T03:32:12.250Z,87.08
2023-01-17T03:34:39.002Z,87.69
2023-01-17T03:37:05.694Z,88.39
2023-01-17T03:39:32.466Z,88.88
2023-01-17T03:41:59.123Z,88.83
2023-01-17T03:44:25.834Z,89.35
2023-01-17T03:46:52.531Z,89.89
2023-01-17T03:49:19.406Z,89.65
2023-01-17T03:51:46.071Z,90.17
2023-01-17T03:54:12.853Z,90.33
2023-01-17T03:56:39.503Z,90.50
2023-01-17T03:59:06.235Z,90.11
2023-01-17T04:01:33.154Z,90.39
2023-01-17T04:04:00.005Z,92.29
2023-01-17T04:06:26.875Z,92.37
2023-01-17T04:08:53.660Z,92.06
2023-01-17T04:11:20.667Z,92.65
2023-01-17T04:13:47.304Z,92.59
2023-01-17T04:16:17.700Z,92.81
2023-01-17T04:18:44.826Z,92.02
2023-01-17T04:21:11.904Z,91.12
2023-01-17T04:23:38.732Z,90.30
2023-01-17T04:26:05.448Z,90.05
2023-01-17T04:28:32.160Z,90.11
2023-01-17T04:31:00.104Z,90.66
2023-01-17T04:33:26.990Z,90.08
2023-01-17T04:35:54.267Z,89.97
2023-01-17T04:38:22.343Z,89.73
2023-01-17T04:40:49.911Z,88.50
2023-01-17T04:43:17.405Z,89.46
2023-01-17T04:45:44.102Z,89.61
2023-01-17T04:48:12.749Z,89.76
2023-01-17T04:50:40.100Z,89.39
2023-01-17T04:53:06.884Z,89.82
2023-01-17T04:55:33.669Z,89.66
2023-01-17T04:58:00.410Z,89.55
2023-01-17T05:00:27.074Z,89.82
2023-01-17T05:02:53.843Z,90.01
2023-01-17T05:05:20.519Z,89.82
2023-01-17T05:07:57.952Z,88.69
2023-01-17T05:10:25.371Z,89.32
2023-01-17T05:12:59.493Z,89.38
2023-01-17T05:15:27.150Z,88.79
2023-01-17T05:17:54.691Z,88.55
2023-01-17T05:20:23.652Z,88.82
2023-01-17T05:22:57.535Z,88.88
2023-01-17T05:25:26.096Z,89.79
2023-01-17T05:27:53.236Z,89.46
2023-01-17T05:30:20.670Z,89.40
2023-01-17T05:32:51.950Z,89.35
2023-01-17T05:35:20.583Z,89.03
2023-01-17T05:37:57.397Z,88.36
2023-01-17T05:40:32.308Z,88.16
2023-01-17T05:43:01.371Z,88.40
2023-01-17T05:45:29.642Z,88.68
2023-01-17T05:47:57.870Z,88.96
2023-01-17T05:50:28.257Z,89.29
2023-01-17T05:53:14.965Z,89.25
2023-01-17T05:55:42.699Z,89.13
2023-01-17T05:58:15.504Z,89.27
2023-01-17T06:00:42.849Z,89.48
2023-01-17T06:03:09.521Z,90.00
2023-01-17T06:05:36.216Z,90.29
2023-01-17T06:08:03.875Z,89.56
2023-01-17T06:10:30.843Z,89.69
2023-01-17T06:13:05.856Z,89.81
2023-01-17T06:15:33.111Z,89.64
2023-01-17T06:18:04.830Z,88.71
2023-01-17T06:20:31.564Z,88.68
2023-01-17T06:23:01.431Z,88.81
2023-01-17T06:25:28.163Z,89.40
2023-01-17T06:27:55.397Z,89.44
2023-01-17T06:30:22.068Z,89.06
2023-01-17T06:32:53.193Z,88.64
2023-01-17T06:35:19.939Z,88.80
2023-01-17T06:37:46.593Z,89.95
2023-01-17T06:40:13.507Z,89.67
2023-01-17T06:42:40.704Z,89.72
2023-01-17T06:45:08.130Z,89.07
2023-01-17T06:47:39.377Z,89.17
2023-01-17T06:50:07.987Z,89.10
2023-01-17T06:52:34.671Z,88.83
2023-01-17T06:55:01.433Z,89.24
2023-01-17T06:57:28.259Z,88.87
2023-01-17T06:59:55.043Z,89.19
2023-01-17T07:02:21.629Z,88.75
2023-01-17T07:04:48.293Z,88.58
2023-01-17T07:07:15.036Z,88.05
2023-01-17T07:09:41.792Z,86.95
2023-01-17T07:12:08.503Z,87.97
2023-01-17T07:14:35.228Z,88.84
2023-01-17T07:17:01.924Z,87.84
2023-01-17T07:19:28.686Z,87.76
2023-01-17T07:21:55.407Z,88.13
2023-01-17T07:24:22.152Z,88.55
2023-01-17T07:26:50.585Z,88.80
2023-01-17T07:29:18.487Z,88.77
2023-01-17T07:31:45.201Z,87.83
2023-01-17T07:34:11.960Z,87.96
2023-01-17T07:36:38.644Z,87.65
2023-01-17T07:39:06.383Z,87.57
2023-01-17T07:41:34.764Z,88.21
2023-01-17T07:44:04.836Z,88.40
2023-01-17T07:46:31.575Z,88.64
2023-01-17T07:48:58.209Z,88.16
2023-01-17T07:51:24.902Z,87.50
2023-01-17T07:53:51.543Z,87.13
2023-01-17T07:56:18.364Z,87.24
2023-01-17T07:58:45.098Z,87.37
2023-01-17T08:01:13.726Z,87.35
2023-01-17T08:03:40.752Z,87.31
2023-01-17T08:06:20.177Z,87.32
2023-01-17T08:08:47.481Z,87.97
2023-01-17T08:11:15.062Z,88.26
2023-01-17T08:13:41.901Z,88.07
2023-01-17T08:16:11.126Z,88.62
2023-01-17T08:18:38.086Z,89.30
2023-01-17T08:21:05.253Z,89.65
2023-01-17T08:23:32.033Z,90.54
2023-01-17T08:26:01.802Z,91.29
2023-01-17T08:28:28.617Z,91.05
2023-01-17T08:30:55.315Z,91.86
2023-01-17T08:33:22.170Z,92.18
2023-01-17T08:35:55.094Z,92.34
2023-01-17T08:38:23.820Z,90.59
2023-01-17T08:40:50.939Z,89.78
2023-01-17T08:43:17.717Z,90.78
2023-01-17T08:45:50.085Z,91.31
2023-01-17T08:48:16.845Z,91.14
2023-01-17T08:50:43.497Z,91.50
2023-01-17T08:53:10.696Z,91.46
2023-01-17T08:55:40.894Z,91.67
2023-01-17T08:58:08.166Z,90.86
2023-01-17T09:00:35.103Z,91.06
2023-01-17T09:03:01.849Z,91.20
2023-01-17T09:05:28.494Z,91.16
2023-01-17T09:07:56.640Z,91.15
2023-01-17T09:10:23.998Z,90.74
2023-01-17T09:12:50.794Z,90.52
2023-01-17T09:15:20.252Z,90.82
2023-01-17T09:17:47.953Z,90.16
2023-01-17T09:20:14.809Z,90.78
2023-01-17T09:22:41.637Z,90.68
2023-01-17T09:25:08.966Z,90.26
2023-01-17T09:27:35.718Z,90.30
2023-01-17T09:30:02.993Z,90.27
2023-01-17T09:32:29.704Z,89.92
2023-01-17T09:35:00.737Z,89.96
2023-01-17T09:37:27.686Z,90.43
2023-01-17T09:39:54.368Z,91.18
2023-01-17T09:42:32.292Z,90.92
2023-01-17T09:44:59.154Z,91.26
2023-01-17T09:47:52.603Z,90.87
2023-01-17T09:50:19.270Z,90.71
2023-01-17T09:52:46.398Z,90.30
2023-01-17T09:55:18.355Z,90.00
2023-01-17T09:58:07.014Z,89.57
2023-01-17T10:00:46.531Z,90.21
2023-01-17T10:03:32.565Z,90.61
2023-01-17T10:05:59.223Z,90.70
2023-01-17T10:08:57.416Z,90.03
2023-01-17T10:11:54.489Z,89.92
2023-01-17T10:14:38.746Z,88.74
2023-01-17T10:17:20.817Z,87.23
2023-01-17T10:20:03.916Z,86.82
2023-01-17T10:22:51.956Z,85.95
2023-01-17T10:25:40.722Z,87.06
2023-01-17T10:28:16.771Z,87.60
2023-01-17T10:30:49.367Z,88.42
2023-01-17T10:33:21.437Z,88.03
2023-01-17T10:35:54.886Z,88.41
2023-01-17T10:38:27.924Z,88.76
2023-01-17T10:41:00.675Z,90.07
2023-01-17T10:43:45.798Z,90.07
2023-01-17T10:46:20.098Z,90.27
2023-01-17T10:48:52.002Z,91.70
2023-01-17T10:51:24.451Z,90.73
2023-01-17T10:53:51.399Z,92.10
2023-01-17T10:56:20.963Z,93.72
2023-01-17T10:58:49.296Z,92.87
2023-01-17T11:01:20.924Z,92.16
2023-01-17T11:03:51.124Z,93.10
2023-01-17T11:06:26.211Z,93.56
2023-01-17T11:09:02.075Z,92.96
2023-01-17T11:11:30.955Z,93.39
2023-01-17T11:14:03.388Z,93.08
2023-01-17T11:16:31.841Z,92.70
2023-01-17T11:19:12.655Z,93.52
2023-01-17T11:21:48.833Z,92.97
2023-01-17T11:24:24.356Z,93.29
2023-01-17T11:26:51.171Z,92.85
2023-01-17T11:29:37.363Z,92.14
2023-01-17T11:32:22.491Z,92.91
2023-01-17T11:35:08.105Z,92.50
2023-01-17T11:37:35.901Z,91.17
2023-01-17T11:40:23.717Z,91.31
2023-01-17T11:43:18.700Z,90.56
2023-01-17T11:45:47.489Z,90.49
2023-01-17T11:48:17.246Z,91.27
2023-01-17T11:50:56.323Z,90.84
2023-01-17T11:53:36.414Z,91.54
2023-01-17T11:56:11.974Z,91.58
2023-01-17T11:58:42.184Z,92.18
2023-01-17T12:01:46.604Z,91.71
2023-01-17T12:04:24.186Z,91.40
2023-01-17T12:07:05.031Z,91.75
2023-01-17T12:09:45.389Z,90.55
2023-01-17T12:12:51.599Z,90.89
2023-01-17T12:15:38.069Z,91.24
2023-01-17T12:18:17.028Z,92.28
2023-01-17T12:21:08.459Z,92.05
2023-01-17T12:23:57.030Z,91.79
2023-01-17T12:26:27.574Z,92.38
2023-01-17T12:29:09.349Z,92.52
2023-01-17T12:31:53.553Z,92.47
2023-01-17T12:34:41.976Z,92.73
2023-01-17T12:37:24.715Z,92.44
2023-01-17T12:40:04.411Z,92.56
2023-01-17T12:42:40.671Z,92.02
2023-01-17T12:45:20.226Z,92.16
2023-01-17T12:47:54.481Z,92.79
2023-01-17T12:50:28.583Z,92.33
2023-01-17T12:53:15.303Z,92.94
2023-01-17T12:55:47.341Z,92.23
2023-01-17T12:58:20.581Z,92.44
2023-01-17T13:00:54.779Z,93.35
2023-01-17T13:03:31.615Z,93.68
2023-01-17T13:06:02.823Z,93.00
2023-01-17T13:08:48.525Z,92.94
2023-01-17T13:11:30.748Z,93.93
2023-01-17T13:13:59.759Z,94.25
2023-01-17T13:16:35.480Z,94.35
2023-01-17T13:19:44.198Z,93.75
2023-01-17T13:22:17.683Z,93.66
2023-01-17T13:24:50.793Z,93.90
2023-01-17T13:27:55.965Z,94.44
2023-01-17T13:30:43.360Z,94.24
2023-01-17T13:33:34.583Z,94.24
2023-01-17T13:36:22.879Z,93.42
2023-01-17T13:39:11.085Z,94.24
2023-01-17T13:42:01.372Z,94.37
2023-01-17T13:44:30.078Z,93.86
2023-01-17T13:47:18.622Z,93.13
2023-01-17T13:49:56.612Z,95.02
2023-01-17T13:52:26.497Z,95.84
2023-01-17T13:54:55.777Z,96.05
2023-01-17T13:57:25.738Z,96.80
2023-01-17T13:59:54.661Z,97.22
2023-01-17T14:02:33.462Z,97.57
2023-01-17T14:05:21.353Z,98.69
2023-01-17T14:08:01.658Z,99.34
2023-01-17T14:10:41.647Z,98.51
2023-01-17T14:13:33.811Z,97.66
2023-01-17T14:16:02.422Z,97.57
2023-01-17T14:18:47.660Z,97.20
2023-01-17T14:21:35.896Z,96.77
2023-01-17T14:24:16.528Z,96.56
2023-01-17T14:27:14.552Z,96.49
2023-01-17T14:29:44.407Z,95.45
2023-01-17T14:32:17.609Z,95.30
2023-01-17T14:34:50.038Z,95.04
2023-01-17T14:37:31.855Z,95.46
2023-01-17T14:39:59.890Z,95.05
2023-01-17T14:42:29.580Z,94.81
2023-01-17T14:45:08.885Z,96.05
2023-01-17T14:47:39.407Z,95.24
2023-01-17T14:50:23.720Z,95.33
2023-01-17T14:53:18.253Z,95.67
2023-01-17T14:55:49.149Z,94.82
2023-01-17T14:58:30.572Z,95.35
2023-01-17T15:01:04.148Z,95.08
2023-01-17T15:03:35.550Z,94.44
2023-01-17T15:06:11.679Z,95.01
2023-01-17T15:08:38.848Z,94.60
2023-01-17T15:11:19.846Z,94.71
2023-01-17T15:13:49.804Z,94.62
2023-01-17T15:16:25.785Z,94.74
2023-01-17T15:18:54.608Z,94.89
2023-01-17T15:21:24.530Z,94.68
2023-01-17T15:24:03.639Z,94.90
2023-01-17T15:26:34.262Z,94.71
2023-01-17T15:29:17.588Z,94.48
2023-01-17T15:31:55.366Z,93.98
2023-01-17T15:34:31.280Z,94.46
2023-01-17T15:37:02.543Z,94.56
2023-01-17T15:39:39.051Z,94.98
2023-01-17T15:42:08.414Z,95.23
2023-01-17T15:44:48.222Z,95.67
2023-01-17T15:47:36.073Z,95.30
2023-01-17T15:50:27.766Z,94.96
2023-01-17T15:52:57.861Z,95.09
2023-01-17T15:55:39.417Z,95.24
2023-01-17T15:58:23.843Z,94.45
2023-01-17T16:00:50.886Z,94.61
2023-01-17T16:03:29.484Z,95.00
2023-01-17T16:06:01.238Z,94.94
2023-01-17T16:08:32.299Z,94.81
2023-01-17T16:11:02.259Z,94.42
2023-01-17T16:13:31.716Z,94.41
2023-01-17T16:16:10.440Z,94.66
2023-01-17T16:18:37.492Z,93.58
2023-01-17T16:21:18.876Z,93.82
2023-01-17T16:23:46.318Z,94.15
2023-01-17T16:26:13.159Z,93.94
2023-01-17T16:28:40.203Z,94.00
2023-01-17T16:31:06.937Z,94.27
2023-01-17T16:33:34.665Z,94.27
2023-01-17T16:36:01.400Z,94.13
2023-01-17T16:38:28.161Z,94.72
2023-01-17T16:40:54.913Z,94.20
2023-01-17T16:43:21.829Z,93.90
2023-01-17T16:45:54.020Z,93.48
2023-01-17T16:48:21.299Z,94.04
2023-01-17T16:50:52.870Z,94.39
2023-01-17T16:53:25.291Z,95.03
2023-01-17T16:55:58.401Z,95.12
2023-01-17T16:58:25.667Z,95.26
2023-01-17T17:00:52.490Z,95.09
2023-01-17T17:03:22.911Z,94.75
2023-01-17T17:05:58.341Z,94.98
2023-01-17T17:08:25.263Z,94.67
2023-01-17T17:10:52.179Z,95.04
2023-01-17T17:13:19.085Z,95.16
2023-01-17T17:15:46.026Z,95.28
2023-01-17T17:18:14.974Z,94.80
2023-01-17T17:20:41.920Z,94.69
2023-01-17T17:23:10.013Z,94.66
2023-01-17T17:25:37.334Z,94.25
2023-01-17T17:28:05.354Z,94.77
2023-01-17T17:30:33.370Z,95.10
2023-01-17T17:33:00.240Z,94.96
2023-01-17T17:35:26.951Z,94.55
2023-01-17T17:37:54.360Z,94.76
2023-01-17T17:40:21.325Z,94.53
2023-01-17T17:42:48.125Z,94.68
2023-01-17T17:45:14.911Z,94.47
2023-01-17T17:47:41.636Z,93.81
2023-01-17T17:50:09.102Z,94.01
2023-01-17T17:52:35.934Z,92.64
2023-01-17T17:55:02.529Z,93.21
2023-01-17T17:57:30.271Z,92.94
2023-01-17T17:59:59.594Z,92.22
2023-01-17T18:02:26.393Z,92.43
2023-01-17T18:04:53.263Z,92.42
2023-01-17T18:07:20.511Z,92.59
2023-01-17T18:09:47.259Z,92.05
2023-01-17T18:12:14.109Z,92.82
2023-01-17T18:14:40.770Z,92.74
2023-01-17T18:17:07.520Z,92.76
2023-01-17T18:19:34.189Z,92.98
2023-01-17T18:22:00.980Z,93.36
2023-01-17T18:24:27.724Z,93.58
2023-01-17T18:26:57.009Z,93.03
2023-01-17T18:29:25.651Z,92.99
2023-01-17T18:31:54.244Z,93.31
2023-01-17T18:34:29.229Z,93.29
2023-01-17T18:36:57.067Z,93.55
2023-01-17T18:39:29.827Z,93.60
2023-01-17T18:41:56.899Z,94.52
2023-01-17T18:44:23.912Z,94.27
2023-01-17T18:46:53.114Z,94.01
2023-01-17T18:49:20.104Z,94.50
2023-01-17T18:51:50.770Z,94.53
2023-01-17T18:54:19.311Z,94.42
2023-01-17T18:56:46.177Z,95.17
2023-01-17T18:59:14.214Z,94.72
2023-01-17T19:01:44.607Z,95.05
2023-01-17T19:04:13.383Z,94.60
2023-01-17T19:06:42.299Z,95.11
2023-01-17T19:09:11.622Z,94.16
2023-01-17T19:11:38.412Z,93.99
2023-01-17T19:14:06.167Z,94.30
2023-01-17T19:16:36.699Z,94.52
2023-01-17T19:19:06.903Z,94.76
2023-01-17T19:21:34.350Z,94.61
2023-01-17T19:24:01.527Z,94.14
2023-01-17T19:26:29.936Z,94.38
2023-01-17T19:28:58.908Z,93.43
2023-01-17T19:31:28.949Z,93.80
2023-01-17T19:33:58.044Z,93.57
2023-01-17T19:36:30.976Z,93.42
2023-01-17T19:39:06.290Z,93.41
2023-01-17T19:41:34.249Z,93.84
2023-01-17T19:44:05.562Z,93.89
2023-01-17T19:46:33.622Z,94.35
2023-01-17T19:49:01.085Z,94.06
2023-01-17T19:51:29.152Z,94.40
2023-01-17T19:53:56.731Z,94.36
2023-01-17T19:56:25.954Z,94.32
2023-01-17T19:58:53.593Z,94.27
2023-01-17T20:01:28.124Z,94.13
2023-01-17T20:03:57.760Z,93.34
2023-01-17T20:06:29.236Z,93.32
2023-01-17T20:08:56.567Z,93.23
2023-01-17T20:11:25.061Z,92.02
2023-01-17T20:13:54.595Z,91.87
2023-01-17T20:16:22.651Z,91.45
2023-01-17T20:18:49.888Z,91.08
2023-01-17T20:21:19.502Z,92.07
2023-01-17T20:23:47.848Z,92.33
2023-01-17T20:26:16.462Z,93.37
2023-01-17T20:28:45.523Z,92.33
2023-01-17T20:31:15.405Z,92.73
2023-01-17T20:33:43.869Z,93.00
2023-01-17T20:36:14.876Z,92.51
2023-01-17T20:38:45.719Z,91.82
2023-01-17T20:41:19.850Z,91.61
2023-01-17T20:43:52.513Z,91.31
2023-01-17T20:46:21.937Z,91.81
2023-01-17T20:48:54.112Z,92.02
2023-01-17T20:51:22.020Z,92.51
2023-01-17T20:53:57.415Z,91.73
2023-01-17T20:56:25.463Z,92.04
2023-01-17T20:58:53.966Z,92.45
2023-01-17T21:01:24.354Z,92.48
2023-01-17T21:03:53.943Z,92.05
2023-01-17T21:06:22.357Z,91.51
2023-01-17T21:08:49.570Z,91.56
2023-01-17T21:11:21.945Z,92.45
2023-01-17T21:13:49.160Z,92.75
2023-01-17T21:16:17.822Z,92.55
2023-01-17T21:18:50.154Z,92.62
2023-01-17T21:21:21.805Z,91.91
2023-01-17T21:23:50.347Z,92.03
2023-01-17T21:26:18.918Z,90.16
2023-01-17T21:28:47.332Z,89.91
2023-01-17T21:31:23.027Z,90.09
2023-01-17T21:34:13.571Z,91.01
2023-01-17T21:36:41.927Z,91.29
2023-01-17T21:39:15.553Z,91.50
2023-01-17T21:41:45.692Z,90.99
2023-01-17T21:44:16.062Z,90.63
2023-01-17T21:46:42.851Z,90.68
2023-01-17T21:49:11.982Z,90.35
2023-01-17T21:51:52.664Z,89.27
2023-01-17T21:54:43.498Z,88.16
2023-01-17T21:57:29.806Z,89.33
2023-01-17T21:59:56.737Z,89.04
2023-01-17T22:02:23.882Z,88.82
2023-01-17T22:04:50.688Z,87.50
2023-01-17T22:07:17.569Z,85.59
2023-01-17T22:09:44.220Z,86.18
2023-01-17T22:12:10.870Z,87.47
2023-01-17T22:14:38.512Z,87.86
2023-01-17T22:17:05.163Z,88.54
2023-01-17T22:19:31.997Z,87.18
2023-01-17T22:21:58.651Z,85.20
2023-01-17T22:24:25.486Z,85.83
2023-01-17T22:26:52.081Z,86.78
2023-01-17T22:29:19.097Z,87.11
2023-01-17T22:31:45.864Z,86.96
2023-01-17T22:34:15.772Z,88.35
2023-01-17T22:36:42.542Z,88.36
2023-01-17T22:39:09.900Z,88.88
2023-01-17T22:41:37.881Z,89.00
2023-01-17T22:44:08.595Z,89.30
2023-01-17T22:46:40.484Z,88.76
2023-01-17T22:49:08.600Z,89.16
2023-01-17T22:51:35.629Z,88.46
2023-01-17T22:54:02.355Z,87.26
2023-01-17T22:56:33.431Z,87.62
2023-01-17T22:59:01.220Z,87.47
2023-01-17T23:01:30.030Z,88.53
2023-01-17T23:04:02.890Z,88.78
2023-01-17T23:06:38.231Z,89.18
2023-01-17T23:09:08.687Z,89.48
2023-01-17T23:11:43.791Z,89.15
2023-01-17T23:14:13.644Z,88.91
2023-01-17T23:17:02.032Z,89.81
2023-01-17T23:19:37.466Z,90.11
2023-01-17T23:22:21.193Z,89.89
2023-01-17T23:24:55.845Z,89.65
2023-01-17T23:27:42.824Z,88.88
2023-01-17T23:30:11.554Z,89.13
2023-01-17T23:32:48.610Z,88.18
2023-01-17T23:35:16.727Z,88.72
2023-01-17T23:38:02.190Z,88.72
2023-01-17T23:40:31.190Z,88.52
2023-01-17T23:43:16.277Z,88.30
2023-01-17T23:45:43.075Z,89.01
2023-01-17T23:48:10.638Z,88.92
2023-01-17T23:50:42.612Z,90.04
2023-01-17T23:53:09.764Z,89.40
2023-01-17T23:55:42.061Z,90.18
2023-01-17T23:58:11.375Z,90.36
